Date,TemperatureHighF,TemperatureAvgF,TemperatureLowF,DewpointHighF,DewpointAvgF,DewpointLowF,HumidityHigh,HumidityAvg,HumidityLow,PressureMaxIn,PressureMinIn,WindSpeedMaxMPH,WindSpeedAvgMPH,GustSpeedMaxMPH,PrecipitationSumIn
2013-3-1,45.2,36.9,26.4,30.5,27.9,23.0,88,71,50,29.99,29.92,8,0,8,0.00
2013-3-2,46.1,36.5,30.6,34.9,27.7,18.7,88,72,44,30.00,29.88,10,1,10,0.02
2013-3-3,42.9,31.1,20.9,20.0,17.2,15.7,82,58,38,30.08,29.97,11,1,11,0.00
2013-3-4,55.7,37.5,21.4,26.8,17.0,10.4,74,48,17,30.19,30.06,10,1,10,0.00
2013-3-5,42.9,38.2,31.4,38.9,33.5,25.8,90,83,60,30.11,29.68,6,0,6,0.96
2013-3-6,38.7,34.5,31.2,36.0,25.8,20.5,90,71,59,30.18,29.68,18,2,18,0.00
2013-3-7,53.1,36.3,23.7,30.5,24.8,20.3,87,66,38,30.34,30.17,10,1,10,0.00
2013-3-8,55.4,36.0,19.8,28.3,23.1,16.8,88,64,31,30.39,30.29,13,1,13,0.00
2013-3-9,63.2,41.3,21.9,33.7,27.7,18.9,88,64,28,30.42,30.29,9,1,9,0.00
2013-3-10,66.0,48.1,30.5,39.5,34.7,27.4,88,64,32,30.35,30.20,12,1,12,0.00
2013-3-11,60.4,47.6,35.5,48.2,40.4,31.7,87,77,60,30.23,29.90,8,0,8,0.53
2013-3-12,52.2,48.8,35.1,48.8,44.4,29.7,88,85,62,30.02,29.77,8,0,8,0.67
2013-3-13,51.2,40.1,28.0,32.7,24.1,15.9,84,55,33,30.23,30.02,19,2,19,0.00
2013-3-14,52.7,37.3,26.5,23.4,16.5,12.2,72,46,21,30.35,30.22,13,1,13,0.00
2013-3-15,68.0,45.3,25.4,41.0,30.4,20.4,82,60,32,30.26,29.94,13,1,13,0.00
2013-3-16,81.0,60.7,40.0,49.8,43.5,36.3,87,59,27,29.95,29.71,17,2,17,0.00
2013-3-17,68.8,54.7,41.4,54.6,46.3,36.6,84,74,59,30.15,29.87,14,1,14,0.00
2013-3-18,41.5,38.2,36.4,36.7,34.3,32.6,86,86,83,30.19,29.91,7,1,7,0.31
2013-3-19,62.9,47.5,35.0,40.4,27.4,10.9,87,53,18,30.11,29.89,15,2,17,0.00
2013-3-20,57.3,42.0,26.5,26.7,17.7,3.7,77,44,13,30.16,29.86,15,1,15,0.00
2013-3-21,42.9,33.9,24.5,27.3,12.0,3.9,67,41,26,30.05,29.85,14,2,14,0.00
2013-3-22,51.7,34.7,16.3,25.8,16.6,10.7,83,53,21,30.15,30.03,12,1,13,0.00
2013-3-24,42.1,39.4,36.6,37.2,34.9,32.2,84,84,83,29.78,29.59,8,1,8,0.80
2013-3-25,43.9,37.8,33.2,32.2,27.8,23.0,85,68,46,29.93,29.60,19,2,19,0.05
2013-3-26,47.5,37.1,25.5,27.6,23.9,20.5,82,60,43,30.24,29.92,13,1,13,0.00
2013-3-27,49.2,37.7,27.3,26.4,23.3,21.0,81,58,36,30.33,30.23,13,1,13,0.00
2013-3-28,55.1,37.2,20.6,27.4,22.1,16.5,84,59,29,30.37,30.27,11,1,11,0.00
2013-3-29,60.6,42.2,23.1,35.6,26.2,19.0,84,58,24,30.41,30.25,11,1,11,0.00
2013-3-30,64.8,55.1,40.9,42.1,37.0,30.8,78,53,34,30.28,30.09,10,1,10,0.00
2013-3-31,67.3,53.8,43.9,54.0,46.2,38.1,82,76,57,30.09,29.82,10,1,10,0.27